This is the latest recevied weather packets stored in our database for station/object SP3OTE-2. If no packets are shown the sender has not sent any weather packets the latest 10 day(s).
| Time | Temp. | Humidity | Pressure | Rain* | Wind** | Luminosity | Snow |
|---|---|---|---|---|---|---|---|
| 1777700088 | 10.56° C | 81% | 1025.6 hPa | - | - | - | - |
| 1777699488 | 9.44° C | 84% | 1025.6 hPa | - | - | - | - |
| 1777698887 | 8.89° C | 87% | 1025.7 hPa | - | - | - | - |
| 1777698287 | 8.33° C | 89% | 1025.8 hPa | - | - | - | - |
| 1777697687 | 7.78° C | 90% | 1025.7 hPa | - | - | - | - |
| 1777697087 | 7.22° C | 91% | 1025.7 hPa | - | - | - | - |
| 1777696486 | 6.11° C | 91% | 1025.8 hPa | - | - | - | - |
| 1777695886 | 5.56° C | 90% | 1025.8 hPa | - | - | - | - |
| 1777695286 | 5° C | 90% | 1025.8 hPa | - | - | - | - |
| 1777694686 | 5° C | 89% | 1025.7 hPa | - | - | - | - |
| 1777694085 | 4.44° C | 88% | 1025.7 hPa | - | - | - | - |
| 1777693485 | 4.44° C | 88% | 1025.6 hPa | - | - | - | - |
| 1777692885 | 4.44° C | 87% | 1025.8 hPa | - | - | - | - |
| 1777692284 | 4.44° C | 87% | 1025.7 hPa | - | - | - | - |
| 1777691684 | 4.44° C | 86% | 1025.7 hPa | - | - | - | - |
| 1777691084 | 4.44° C | 86% | 1025.7 hPa | - | - | - | - |
| 1777690484 | 4.44° C | 85% | 1025.8 hPa | - | - | - | - |
| 1777689883 | 4.44° C | 84% | 1025.7 hPa | - | - | - | - |
| 1777689283 | 5° C | 84% | 1025.8 hPa | - | - | - | - |
| 1777688683 | 5° C | 84% | 1025.7 hPa | - | - | - | - |
| 1777687482 | 5° C | 82% | 1025.7 hPa | - | - | - | - |
| 1777686882 | 5° C | 82% | 1025.7 hPa | - | - | - | - |
| 1777686282 | 5° C | 81% | 1025.7 hPa | - | - | - | - |
| 1777685682 | 5° C | 81% | 1025.7 hPa | - | - | - | - |
| 1777684481 | 5.56° C | 79% | 1025.7 hPa | - | - | - | - |
* Rain since midnight (hover to see other rain measurements)
** Current wind speed in m/s (hover to see current wind gust speed)